Santana do Livramento, Brazil
Current Conditions -  °F | °C
As of 7:00 PM on Saturday 22 Nov 2014 (Local Time) from SBUG Reporting Station
Few Clouds Few Clouds  
Wind Chill: 73°   Ceiling: Unl
Heat Index: 73°   Visibility: 6mi
Dew Point: 54°   Wind: 10mph
Humidity: 50%   Direction: 190°S
Pressure: 29.88"   Gusts: NA
Location:  30.88°S, 55.53°W
Report Text: SBUG 222100Z 19009KT 9999 FEW035 23/12 Q1012
Loading
Personal Weather Stations






























Interactive Weather Map New forecast layout! Learn more

10-Day Weather Forecast

Advertisements
Track Severe Weather on mobile